Time;durP1;ratioP1;P1;durP2;ratioP2;P2;SDS_P1;SDS_P2;PMS_P1;PMS_P2;Temp;Humidity;BMP_temperature;BMP_pressure;BME280_temperature;BME280_humidity;BME280_pressure;Samples;Min_cycle;Max_cycle;Signal;HPM_P1;HPM_P2
2021/03/14 00:01:16;;;;;;;4.58;1.27;;;7.00;99.90;;;;;;1866875;75;21081;-77
2021/03/14 00:03:43;;;;;;;3.10;1.10;;;7.10;99.90;;;;;;1877956;75;21172;-76
2021/03/14 00:06:11;;;;;;;3.80;1.00;;;7.00;99.90;;;;;;1876563;75;21583;-77
2021/03/14 00:08:38;;;;;;;4.72;1.17;;;7.00;99.90;;;;;;1875226;75;21120;-76
2021/03/14 00:11:08;;;;;;;4.50;1.27;;;7.00;99.90;;;;;;1872948;75;21070;-76
2021/03/14 00:13:38;;;;;;;6.40;1.40;;;7.00;99.90;;;;;;1878750;74;21477;-76
2021/03/14 00:16:07;;;;;;;5.67;1.40;;;7.00;99.90;;;;;;1874818;75;21544;-76
2021/03/14 00:18:38;;;;;;;9.60;1.42;;;7.10;99.90;;;;;;1875851;75;21141;-76
2021/03/14 00:21:07;;;;;;;5.40;1.47;;;7.10;99.90;;;;;;1872412;75;21078;-78
2021/03/14 00:23:35;;;;;;;6.12;1.55;;;7.00;99.90;;;;;;1879167;75;21023;-78
2021/03/14 00:26:04;;;;;;;4.37;1.07;;;7.00;99.90;;;;;;1878055;75;21187;-76
2021/03/14 00:28:31;;;;;;;7.50;1.90;;;7.00;99.90;;;;;;1875041;75;21684;-76
2021/03/14 00:30:59;;;;;;;6.33;1.35;;;7.10;99.90;;;;;;1877034;75;21626;-75
2021/03/14 00:33:26;;;;;;;8.53;1.27;;;7.00;99.90;;;;;;1878482;75;21094;-76
2021/03/14 00:35:54;;;;;;;7.78;1.20;;;7.00;99.90;;;;;;1874890;75;22574;-76
2021/03/14 00:38:21;;;;;;;8.65;1.50;;;7.10;99.90;;;;;;1870001;75;21066;-76
2021/03/14 00:40:49;;;;;;;9.95;1.70;;;7.10;99.90;;;;;;1874939;75;21081;-77
2021/03/14 00:43:16;;;;;;;6.65;1.55;;;7.20;99.90;;;;;;1879062;74;21082;-76
2021/03/14 00:45:44;;;;;;;7.20;1.35;;;7.30;99.90;;;;;;1869896;75;21113;-77
2021/03/14 00:48:11;;;;;;;4.37;1.30;;;7.30;99.90;;;;;;1876867;75;21094;-77
2021/03/14 00:50:41;;;;;;;6.42;1.27;;;7.20;99.90;;;;;;1874179;75;22022;-77
2021/03/14 00:53:09;;;;;;;7.72;1.47;;;7.20;99.90;;;;;;1871031;75;21777;-77
2021/03/14 00:55:37;;;;;;;5.60;1.47;;;7.30;99.90;;;;;;1872322;75;21292;-76
2021/03/14 00:58:06;;;;;;;7.75;1.82;;;7.30;99.90;;;;;;1873448;75;21059;-77
2021/03/14 01:00:33;;;;;;;10.43;1.40;;;7.30;99.90;;;;;;1876428;75;21681;-77
2021/03/14 01:03:01;;;;;;;7.45;1.50;;;7.30;99.90;;;;;;1874616;75;21215;-77
2021/03/14 01:05:29;;;;;;;9.33;1.72;;;7.40;99.90;;;;;;1879485;75;21238;-77
2021/03/14 01:07:56;;;;;;;7.95;1.70;;;7.50;99.90;;;;;;1880416;75;21176;-76
2021/03/14 01:10:24;;;;;;;10.00;1.80;;;7.50;99.90;;;;;;1869324;75;21520;-76
2021/03/14 01:12:52;;;;;;;7.00;1.72;;;7.40;99.90;;;;;;1870304;74;21086;-77
2021/03/14 01:15:20;;;;;;;9.68;1.52;;;7.30;99.90;;;;;;1876809;75;21145;-77
2021/03/14 01:17:47;;;;;;;9.18;1.77;;;7.30;99.90;;;;;;1872432;75;21098;-75
2021/03/14 01:20:18;;;;;;;7.78;2.22;;;7.30;99.90;;;;;;1875270;75;21023;-77
2021/03/14 01:22:48;;;;;;;11.22;2.20;;;7.30;99.90;;;;;;1869303;75;21269;-75
2021/03/14 01:25:16;;;;;;;11.00;1.70;;;7.30;99.90;;;;;;1872476;75;21690;-76
2021/03/14 01:27:46;;;;;;;7.30;1.50;;;7.30;99.90;;;;;;1877919;75;21141;-76
2021/03/14 01:30:17;;;;;;;5.12;1.17;;;7.30;99.90;;;;;;1865913;74;21121;-76
2021/03/14 01:32:46;;;;;;;8.77;1.70;;;7.40;99.90;;;;;;1877010;75;21090;-75
2021/03/14 01:35:16;;;;;;;9.90;2.08;;;7.50;99.90;;;;;;1872183;75;21529;-75
2021/03/14 01:37:44;;;;;;;9.73;1.62;;;7.50;99.90;;;;;;1876424;75;21129;-77
2021/03/14 01:40:14;;;;;;;12.07;1.67;;;7.40;99.90;;;;;;1874300;75;21175;-77
2021/03/14 01:42:42;;;;;;;8.30;1.40;;;7.30;99.90;;;;;;1871050;75;21038;-76
2021/03/14 01:45:10;;;;;;;5.92;1.05;;;7.30;99.90;;;;;;1871987;74;21547;-76
2021/03/14 01:47:39;;;;;;;7.75;1.27;;;7.30;99.90;;;;;;1873012;75;21235;-76
2021/03/14 01:50:12;;;;;;;8.13;1.57;;;7.30;99.90;;;;;;1879493;75;21226;-76
2021/03/14 01:52:40;;;;;;;6.25;1.30;;;7.30;99.90;;;;;;1873753;75;21222;-76
2021/03/14 01:55:09;;;;;;;7.33;1.40;;;7.20;99.90;;;;;;1873065;75;21078;-76
2021/03/14 01:57:37;;;;;;;7.03;1.45;;;7.30;99.90;;;;;;1874410;75;21540;-76
2021/03/14 02:00:07;;;;;;;12.78;2.12;;;7.30;99.90;;;;;;1876877;75;21414;-77
2021/03/14 02:02:36;;;;;;;7.20;1.32;;;7.40;99.90;;;;;;1874303;75;21070;-77
2021/03/14 02:05:08;;;;;;;4.95;1.10;;;7.50;99.90;;;;;;1880466;75;21106;-77
2021/03/14 02:07:35;;;;;;;;;;;7.50;99.90;;;;;;1877959;75;21157;-77
2021/03/14 02:10:03;;;;;;;7.25;1.40;;;7.40;99.90;;;;;;1876982;75;20197;-77
2021/03/14 02:12:34;;;;;;;6.22;1.20;;;7.40;99.90;;;;;;1876316;75;21157;-76
2021/03/14 02:15:22;;;;;;;7.85;1.42;;;7.40;99.90;;;;;;1874623;74;21193;-77
2021/03/14 02:17:52;;;;;;;5.85;1.65;;;7.30;99.90;;;;;;1902103;75;22051;-71
2021/03/14 02:20:28;;;;;;;6.03;1.20;;;7.20;99.90;;;;;;1899532;75;21663;-70
2021/03/14 02:23:15;;;;;;;10.72;2.02;;;7.20;99.90;;;;;;1898228;75;21146;-71
2021/03/14 02:25:52;;;;;;;4.10;1.00;;;7.10;99.90;;;;;;1893222;75;21124;-71
2021/03/14 02:28:21;;;;;;;4.12;0.90;;;7.10;99.90;;;;;;1870551;75;21152;-70
2021/03/14 02:30:49;;;;;;;4.70;1.27;;;7.20;99.90;;;;;;1879317;75;21665;-71
2021/03/14 02:33:20;;;;;;;8.25;1.35;;;7.20;99.90;;;;;;1875461;75;21193;-70
2021/03/14 02:35:50;;;;;;;9.35;1.77;;;7.30;99.90;;;;;;1875761;75;21117;-69
2021/03/14 02:38:18;;;;;;;4.53;1.20;;;7.30;99.90;;;;;;1878087;76;21168;-69
2021/03/14 02:40:46;;;;;;;3.47;1.00;;;7.30;99.90;;;;;;1878693;76;21037;-70
2021/03/14 02:43:14;;;;;;;7.47;1.80;;;7.30;99.90;;;;;;1875286;75;21586;-69
2021/03/14 02:45:42;;;;;;;5.15;1.15;;;7.20;99.90;;;;;;1876997;75;21144;-71
2021/03/14 02:48:11;;;;;;;6.67;1.00;;;7.10;99.90;;;;;;1874301;75;21105;-70
2021/03/14 02:50:39;;;;;;;4.35;0.90;;;7.10;99.90;;;;;;1873643;76;21089;-70
2021/03/14 02:53:08;;;;;;;4.85;0.88;;;7.10;99.90;;;;;;1875505;76;21614;-70
2021/03/14 02:55:36;;;;;;;4.67;1.02;;;7.10;99.90;;;;;;1877247;75;21116;-70
2021/03/14 02:58:05;;;;;;;5.00;1.10;;;7.20;99.90;;;;;;1877423;74;21113;-70
2021/03/14 03:00:35;;;;;;;3.42;1.12;;;7.30;99.90;;;;;;1877143;76;21411;-70
2021/03/14 03:03:05;;;;;;;7.53;1.45;;;7.20;99.90;;;;;;1875307;76;21207;-70
2021/03/14 03:05:33;;;;;;;4.55;1.45;;;7.30;99.90;;;;;;1877586;75;21217;-68
2021/03/14 03:08:02;;;;;;;7.20;0.90;;;7.40;99.90;;;;;;1880852;76;21223;-69
2021/03/14 03:10:33;;;;;;;5.80;1.17;;;7.40;99.90;;;;;;1874454;76;21618;-69
2021/03/14 03:13:02;;;;;;;7.78;1.80;;;7.40;99.90;;;;;;1879182;75;21046;-68
2021/03/14 03:15:30;;;;;;;6.55;1.82;;;7.30;99.90;;;;;;1879780;75;21126;-69
2021/03/14 03:17:59;;;;;;;6.58;1.77;;;7.30;99.90;;;;;;1876617;76;21606;-69
2021/03/14 03:20:28;;;;;;;4.53;1.10;;;7.20;99.90;;;;;;1876251;76;21206;-69
2021/03/14 03:22:58;;;;;;;6.35;1.32;;;7.30;99.90;;;;;;1876085;76;21129;-70
2021/03/14 03:25:26;;;;;;;6.85;1.35;;;7.30;99.90;;;;;;1875590;75;21277;-71
2021/03/14 03:27:54;;;;;;;6.55;1.37;;;7.10;99.90;;;;;;1878103;75;21576;-71
2021/03/14 03:30:24;;;;;;;7.50;1.82;;;7.10;99.90;;;;;;1879865;76;21086;-71
2021/03/14 03:32:52;;;;;;;7.15;1.30;;;6.90;99.90;;;;;;1877200;76;21101;-70
2021/03/14 03:35:21;;;;;;;5.17;1.22;;;7.00;99.90;;;;;;1876800;75;21222;-71
2021/03/14 03:37:50;;;;;;;4.55;0.90;;;7.10;99.90;;;;;;1878342;75;21089;-69
2021/03/14 03:40:21;;;;;;;3.62;0.90;;;7.10;99.90;;;;;;1876742;75;21086;-70
2021/03/14 03:42:52;;;;;;;6.80;1.45;;;7.10;99.90;;;;;;1879397;76;21069;-69
2021/03/14 03:45:22;;;;;;;4.22;0.90;;;7.20;99.90;;;;;;1873819;75;21127;-70
2021/03/14 03:47:51;;;;;;;5.83;0.90;;;7.20;99.90;;;;;;1883708;75;21100;-69
2021/03/14 03:50:19;;;;;;;10.98;1.75;;;7.20;99.90;;;;;;1878031;76;21077;-70
2021/03/14 03:52:48;;;;;;;7.78;1.22;;;7.20;99.90;;;;;;1878942;76;21112;-70
2021/03/14 03:55:17;;;;;;;8.40;1.40;;;7.10;99.90;;;;;;1878888;75;21078;-71
2021/03/14 03:57:45;;;;;;;9.20;1.32;;;7.20;99.90;;;;;;1876719;76;21011;-71
2021/03/14 04:00:15;;;;;;;6.45;0.98;;;7.20;99.90;;;;;;1879220;75;21420;-70
2021/03/14 04:02:45;;;;;;;4.80;1.25;;;7.10;99.90;;;;;;1874081;75;21505;-70
2021/03/14 04:05:14;;;;;;;5.10;0.80;;;7.20;99.90;;;;;;1876704;76;21347;-70
2021/03/14 04:07:44;;;;;;;9.05;1.67;;;7.20;99.90;;;;;;1877281;75;21027;-70
2021/03/14 04:10:21;;;;;;;6.17;1.45;;;7.30;99.90;;;;;;1876331;76;21152;-70
2021/03/14 04:12:50;;;;;;;6.78;1.67;;;7.40;99.90;;;;;;1872186;74;21596;-70
2021/03/14 04:15:21;;;;;;;5.95;1.80;;;7.30;99.90;;;;;;1877054;75;21653;-70
2021/03/14 04:17:49;;;;;;;7.37;1.37;;;7.40;99.90;;;;;;1878657;76;21045;-70
2021/03/14 04:20:20;;;;;;;7.00;1.50;;;7.30;99.90;;;;;;1875715;75;21151;-70
2021/03/14 04:22:53;;;;;;;6.20;1.32;;;7.40;99.90;;;;;;1916505;73;21383;-69
2021/03/14 04:25:21;;;;;;;9.10;1.75;;;7.40;99.90;;;;;;1915563;73;21246;-70
2021/03/14 04:27:51;;;;;;;6.58;1.20;;;7.30;99.90;;;;;;1920888;73;21236;-69
2021/03/14 04:30:21;;;;;;;5.42;1.60;;;7.40;99.90;;;;;;1915486;73;21081;-69
2021/03/14 04:32:49;;;;;;;5.25;1.55;;;7.50;99.90;;;;;;1916879;73;21035;-70
2021/03/14 04:35:17;;;;;;;3.77;1.27;;;7.50;99.90;;;;;;1916453;73;21154;-69
2021/03/14 04:37:45;;;;;;;10.68;1.60;;;7.50;99.90;;;;;;1915172;73;21065;-69
2021/03/14 04:40:15;;;;;;;6.47;1.00;;;7.60;99.90;;;;;;1917354;73;21073;-69
2021/03/14 04:42:45;;;;;;;7.00;1.00;;;7.60;99.90;;;;;;1915631;73;21163;-69
2021/03/14 04:45:14;;;;;;;5.78;1.10;;;7.70;99.90;;;;;;1916804;73;21102;-69
2021/03/14 04:47:43;;;;;;;8.10;1.40;;;7.70;99.90;;;;;;1916699;73;21721;-70
2021/03/14 04:50:13;;;;;;;6.62;1.50;;;7.80;99.90;;;;;;1913489;73;21191;-70
2021/03/14 04:52:44;;;;;;;6.92;1.32;;;7.80;99.90;;;;;;1916098;73;21129;-69
2021/03/14 04:55:14;;;;;;;7.58;1.20;;;7.70;99.90;;;;;;1921308;73;21255;-69
2021/03/14 04:57:43;;;;;;;6.17;1.55;;;7.80;99.90;;;;;;1918439;73;21239;-68
2021/03/14 05:00:13;;;;;;;8.03;1.65;;;7.70;99.90;;;;;;1917244;73;21066;-69
2021/03/14 05:02:44;;;;;;;6.78;1.77;;;7.80;99.90;;;;;;1915254;73;21589;-69
2021/03/14 05:05:13;;;;;;;6.67;1.40;;;7.80;99.90;;;;;;1915195;73;21148;-69
2021/03/14 05:07:45;;;;;;;7.17;1.62;;;7.80;99.90;;;;;;1916438;73;21586;-69
2021/03/14 05:10:21;;;;;;;7.47;2.27;;;7.80;99.90;;;;;;1919487;73;21106;-69
2021/03/14 05:12:50;;;;;;;8.73;2.33;;;7.80;99.90;;;;;;1915411;73;21109;-68
2021/03/14 05:15:20;;;;;;;8.00;2.37;;;7.70;99.90;;;;;;1916264;73;21485;-68
2021/03/14 05:17:49;;;;;;;10.63;2.75;;;7.80;99.90;;;;;;1912568;73;21129;-69
2021/03/14 05:20:19;;;;;;;8.83;2.40;;;7.80;99.90;;;;;;1917783;73;21140;-69
2021/03/14 05:22:48;;;;;;;9.90;2.60;;;7.80;99.90;;;;;;1914231;73;21106;-71
2021/03/14 05:25:19;;;;;;;10.40;2.12;;;7.80;99.90;;;;;;1918203;73;21139;-71
2021/03/14 05:27:49;;;;;;;9.70;2.17;;;7.80;99.90;;;;;;1920926;73;21127;-70
2021/03/14 05:30:25;;;;;;;10.43;3.00;;;7.80;99.90;;;;;;1915630;73;21040;-70
2021/03/14 05:32:54;;;;;;;10.68;3.20;;;7.80;99.90;;;;;;1916581;73;21045;-71
2021/03/14 05:35:25;;;;;;;12.15;4.03;;;7.80;99.90;;;;;;1918926;73;21090;-70
2021/03/14 05:37:52;;;;;;;13.43;3.83;;;7.80;99.90;;;;;;1915546;73;21022;-71
2021/03/14 05:40:22;;;;;;;12.58;3.40;;;7.80;99.90;;;;;;1918587;73;21163;-72
2021/03/14 05:42:49;;;;;;;12.47;3.40;;;7.80;99.90;;;;;;1919162;73;21097;-70
2021/03/14 05:45:18;;;;;;;12.75;3.00;;;7.80;99.90;;;;;;1915402;73;21089;-71
2021/03/14 05:47:47;;;;;;;14.33;4.65;;;7.80;99.90;;;;;;1916188;73;21107;-71
2021/03/14 05:50:20;;;;;;;19.45;3.65;;;7.90;99.90;;;;;;1922492;73;21728;-72
2021/03/14 05:52:50;;;;;;;21.07;3.15;;;8.00;99.90;;;;;;1918291;73;21186;-71
2021/03/14 05:55:20;;;;;;;17.93;3.03;;;8.00;99.90;;;;;;1910482;73;21198;-68
2021/03/14 05:57:50;;;;;;;10.53;2.05;;;8.10;99.90;;;;;;1915021;73;21685;-71
2021/03/14 06:00:28;;;;;;;6.03;1.35;;;8.10;99.90;;;;;;1912879;73;21161;-72
2021/03/14 06:03:01;;;;;;;2.72;0.80;;;8.10;99.90;;;;;;1913858;73;21171;-71
2021/03/14 06:05:30;;;;;;;3.15;1.10;;;8.00;99.90;;;;;;1916578;73;21206;-72
2021/03/14 06:07:59;;;;;;;4.28;0.95;;;7.90;99.90;;;;;;1915957;73;21435;-71
2021/03/14 06:10:27;;;;;;;7.85;1.72;;;7.80;99.90;;;;;;1919310;73;21196;-72
2021/03/14 06:12:54;;;;;;;8.95;1.98;;;7.80;99.90;;;;;;1919131;73;21097;-71
2021/03/14 06:15:22;;;;;;;5.80;0.93;;;7.80;99.90;;;;;;1917985;73;21248;-71
2021/03/14 06:17:50;;;;;;;2.22;0.68;;;7.80;99.90;;;;;;1923126;73;21204;-71
2021/03/14 06:20:37;;;;;;;2.87;0.68;;;7.70;99.90;;;;;;1916936;73;21650;-70
2021/03/14 06:23:19;;;;;;;3.85;0.80;;;7.70;99.90;;;;;;1920757;73;21617;-70
2021/03/14 06:25:49;;;;;;;3.25;0.75;;;7.60;99.90;;;;;;1914175;73;21139;-70
2021/03/14 06:28:17;;;;;;;4.80;1.52;;;7.70;99.90;;;;;;1920041;73;21093;-71
2021/03/14 06:30:45;;;;;;;6.62;2.70;;;7.70;99.90;;;;;;1918400;73;21115;-70
2021/03/14 06:33:16;;;;;;;7.25;2.70;;;7.70;99.90;;;;;;1917371;73;21206;-71
2021/03/14 06:35:51;;;;;;;8.63;2.50;;;7.60;99.90;;;;;;1915290;73;21673;-72
2021/03/14 06:38:30;;;;;;;8.98;2.65;;;7.70;99.90;;;;;;1917843;73;21076;-70
2021/03/14 06:41:07;;;;;;;9.05;3.10;;;7.70;99.90;;;;;;1919484;73;21163;-71
2021/03/14 06:43:43;;;;;;;9.43;3.30;;;7.70;99.90;;;;;;1917883;73;21093;-71
2021/03/14 06:46:21;;;;;;;12.45;4.47;;;7.70;99.90;;;;;;1918024;73;21196;-71
2021/03/14 06:49:06;;;;;;;13.60;4.00;;;7.60;99.90;;;;;;1911865;73;21640;-71
2021/03/14 06:51:36;;;;;;;13.00;3.27;;;7.70;99.90;;;;;;1919826;73;21142;-72
2021/03/14 06:54:18;;;;;;;12.53;2.72;;;7.70;99.90;;;;;;1911759;73;21757;-72
2021/03/14 06:57:03;;;;;;;7.67;2.00;;;7.80;99.90;;;;;;1918275;73;21105;-72
2021/03/14 06:59:36;;;;;;;10.05;2.65;;;7.80;99.90;;;;;;1916145;73;21148;-71
2021/03/14 07:02:09;;;;;;;9.00;2.52;;;7.70;99.90;;;;;;1915025;73;21083;-71
2021/03/14 07:04:48;;;;;;;10.55;2.50;;;7.80;99.90;;;;;;1918939;73;21700;-70
2021/03/14 07:07:25;;;;;;;9.33;2.75;;;7.80;99.90;;;;;;1914021;73;21628;-70
2021/03/14 07:10:01;;;;;;;14.18;2.80;;;7.90;99.90;;;;;;1918913;73;21614;-71
2021/03/14 07:12:35;;;;;;;11.85;2.50;;;7.90;99.90;;;;;;1919544;73;21590;-69
2021/03/14 07:15:17;;;;;;;10.95;2.60;;;7.90;99.90;;;;;;1919494;73;21680;-70
2021/03/14 07:17:55;;;;;;;13.93;2.65;;;7.90;99.90;;;;;;1916847;73;21653;-69
2021/03/14 07:20:25;;;;;;;12.45;2.40;;;7.90;99.90;;;;;;1917138;73;21167;-68
2021/03/14 07:23:11;;;;;;;9.48;1.90;;;7.90;99.90;;;;;;1919228;73;21202;-68
2021/03/14 07:25:44;;;;;;;6.22;1.65;;;8.00;99.90;;;;;;1919460;73;21035;-69
2021/03/14 07:28:13;;;;;;;9.45;1.92;;;8.00;99.90;;;;;;1923877;73;21582;-72
2021/03/14 07:30:40;;;;;;;9.33;2.40;;;8.00;99.90;;;;;;1917887;73;21148;-71
2021/03/14 07:33:09;;;;;;;8.90;2.10;;;8.00;99.90;;;;;;1921723;73;21466;-71
2021/03/14 07:35:36;;;;;;;7.35;1.90;;;8.00;99.90;;;;;;1920329;73;21155;-72
2021/03/14 07:38:04;;;;;;;6.90;1.92;;;7.90;99.90;;;;;;1916856;73;21525;-72
2021/03/14 07:40:31;;;;;;;12.43;3.55;;;7.90;99.90;;;;;;1915979;73;21102;-72
2021/03/14 07:43:01;;;;;;;4.90;1.80;;;7.90;99.90;;;;;;1916957;73;21085;-70
2021/03/14 07:45:29;;;;;;;6.58;1.55;;;7.80;99.90;;;;;;1920561;73;21130;-71
2021/03/14 07:47:58;;;;;;;3.72;1.00;;;7.70;99.90;;;;;;1919502;73;21061;-70
2021/03/14 07:50:34;;;;;;;3.33;1.40;;;7.80;99.90;;;;;;1917911;73;21383;-71
2021/03/14 07:53:05;;;;;;;5.25;2.17;;;7.80;99.90;;;;;;1916622;73;21230;-70
2021/03/14 07:55:33;;;;;;;6.40;2.00;;;7.90;99.90;;;;;;1920076;73;21235;-71
2021/03/14 07:58:00;;;;;;;7.83;2.40;;;7.90;99.90;;;;;;1918565;73;21093;-71
2021/03/14 08:00:33;;;;;;;9.30;2.65;;;7.90;99.90;;;;;;1919595;73;21116;-72
2021/03/14 08:03:04;;;;;;;11.40;3.55;;;7.90;99.90;;;;;;1921855;73;21772;-70
2021/03/14 08:05:44;;;;;;;13.60;4.35;;;7.90;99.90;;;;;;1912977;73;21241;-70
2021/03/14 08:08:12;;;;;;;18.37;4.60;;;7.80;99.90;;;;;;1917056;73;21492;-70
2021/03/14 08:10:47;;;;;;;16.05;4.42;;;7.90;99.90;;;;;;1917450;73;21066;-69
2021/03/14 08:13:17;;;;;;;15.88;3.42;;;8.10;99.90;;;;;;1918084;73;21074;-71
2021/03/14 08:16:04;;;;;;;14.20;3.62;;;8.20;99.90;;;;;;1910990;73;21120;-68
2021/03/14 08:18:43;;;;;;;19.48;4.45;;;8.20;99.90;;;;;;1929094;73;21753;-76
2021/03/14 08:21:34;;;;;;;19.30;3.67;;;8.30;99.90;;;;;;1936019;73;21122;-74
2021/03/14 08:24:02;;;;;;;17.27;4.00;;;8.30;99.90;;;;;;1932987;73;21122;-74
2021/03/14 08:26:34;;;;;;;18.52;3.67;;;8.40;99.90;;;;;;1930330;73;21314;-74
2021/03/14 08:29:13;;;;;;;24.82;4.50;;;8.50;99.90;;;;;;1924675;73;21618;-74
2021/03/14 08:31:49;;;;;;;22.70;4.72;;;8.50;99.90;;;;;;1922470;73;21182;-75
2021/03/14 08:34:23;;;;;;;21.12;4.72;;;8.70;99.90;;;;;;1921807;73;21085;-74
2021/03/14 08:36:51;;;;;;;23.67;4.47;;;8.90;99.90;;;;;;1920587;73;21071;-72
2021/03/14 08:39:33;;;;;;;21.82;5.25;;;9.00;99.90;;;;;;1918322;73;21209;-74
2021/03/14 08:42:03;;;;;;;17.60;4.10;;;9.10;99.90;;;;;;1925639;73;21194;-74
2021/03/14 08:44:42;;;;;;;20.30;4.42;;;9.30;99.90;;;;;;1925594;73;21189;-75
2021/03/14 08:47:14;;;;;;;24.70;4.67;;;9.40;99.90;;;;;;1922184;73;21214;-73
2021/03/14 08:49:42;;;;;;;;;;;9.30;99.90;;;;;;1927392;73;21195;-73
2021/03/14 08:52:10;;;;;;;21.65;5.00;;;9.30;99.90;;;;;;1920760;74;20255;-73
2021/03/14 08:54:54;;;;;;;17.87;4.60;;;9.40;99.90;;;;;;1923648;73;21160;-74
2021/03/14 08:57:22;;;;;;;21.70;5.25;;;9.30;99.90;;;;;;1924660;73;21237;-74
2021/03/14 08:59:52;;;;;;;18.27;4.83;;;9.40;99.90;;;;;;1929387;73;21197;-76
2021/03/14 09:02:24;;;;;;;20.27;5.65;;;9.50;99.90;;;;;;1928993;74;20999;-74
2021/03/14 09:04:53;;;;;;;27.35;5.17;;;9.60;99.90;;;;;;1924560;74;21079;-73
2021/03/14 09:07:21;;;;;;;24.75;5.85;;;9.50;99.90;;;;;;1925647;73;21089;-74
2021/03/14 09:09:48;;;;;;;22.25;5.83;;;9.40;99.90;;;;;;1924961;74;20999;-74
2021/03/14 09:12:19;;;;;;;28.00;5.87;;;9.40;99.90;;;;;;1926525;73;21013;-73
2021/03/14 09:14:50;;;;;;;29.32;5.78;;;9.30;99.90;;;;;;1928483;74;21029;-73
2021/03/14 09:17:26;;;;;;;20.30;4.70;;;9.40;99.90;;;;;;1924614;73;21116;-74
2021/03/14 09:19:55;;;;;;;30.50;6.05;;;9.50;99.90;;;;;;1924267;74;21139;-73
2021/03/14 09:22:26;;;;;;;22.65;5.25;;;9.60;99.90;;;;;;1923825;73;21118;-76
2021/03/14 09:24:55;;;;;;;24.32;4.87;;;9.70;99.90;;;;;;1924944;73;21237;-76
2021/03/14 09:27:31;;;;;;;19.82;5.72;;;9.70;99.90;;;;;;1921390;74;21638;-74
2021/03/14 09:30:00;;;;;;;23.05;4.95;;;9.80;99.90;;;;;;1927496;74;21038;-74
2021/03/14 09:32:40;;;;;;;21.52;4.78;;;9.80;99.90;;;;;;1922686;73;21109;-73
2021/03/14 09:35:28;;;;;;;22.60;4.70;;;9.70;99.90;;;;;;1926876;74;21182;-73
2021/03/14 09:37:58;;;;;;;23.65;5.58;;;9.70;99.90;;;;;;1926124;73;21157;-75
2021/03/14 09:40:32;;;;;;;23.42;6.25;;;9.70;99.90;;;;;;1925627;73;22568;-76
2021/03/14 09:43:05;;;;;;;25.97;4.12;;;9.80;99.90;;;;;;1926015;73;21170;-76
2021/03/14 09:45:33;;;;;;;20.10;4.37;;;9.90;99.90;;;;;;1921435;73;21534;-76
2021/03/14 09:48:15;;;;;;;17.80;4.17;;;9.90;99.90;;;;;;1920034;73;21539;-76
2021/03/14 09:50:50;;;;;;;;;;;9.90;99.90;;;;;;1927401;74;21069;-75
2021/03/14 09:53:19;;;;;;;17.80;4.30;;;9.80;99.90;;;;;;1921241;73;21203;-74
2021/03/14 09:55:56;;;;;;;17.45;3.60;;;9.90;99.90;;;;;;1918286;73;21147;-75
2021/03/14 09:58:25;;;;;;;19.98;4.97;;;10.00;99.90;;;;;;1920789;74;21118;-74
2021/03/14 10:00:54;;;;;;;16.60;3.33;;;10.20;99.90;;;;;;1927920;73;21194;-75
2021/03/14 10:03:24;;;;;;;16.95;3.12;;;10.30;99.90;;;;;;1921097;73;22201;-74
2021/03/14 10:05:54;;;;;;;19.23;3.98;;;10.40;99.90;;;;;;1920239;73;21571;-74
2021/03/14 10:08:27;;;;;;;16.55;3.20;;;10.30;99.90;;;;;;1924838;74;21160;-74
2021/03/14 10:11:04;;;;;;;15.95;3.52;;;10.20;99.90;;;;;;1921894;73;21532;-75
2021/03/14 10:13:35;;;;;;;14.43;3.45;;;10.20;99.90;;;;;;1920127;73;21061;-75
2021/03/14 10:16:05;;;;;;;13.62;2.58;;;10.30;99.90;;;;;;1924823;73;21097;-74
2021/03/14 10:18:33;;;;;;;13.72;3.45;;;10.30;99.90;;;;;;1916798;73;21273;-74
2021/03/14 10:21:27;;;;;;;17.50;3.20;;;10.30;99.90;;;;;;1924511;73;21078;-74
2021/03/14 10:24:14;;;;;;;14.10;2.92;;;10.30;99.90;;;;;;1922290;74;21073;-74
2021/03/14 10:27:01;;;;;;;12.82;2.92;;;10.20;99.90;;;;;;1922513;73;21524;-74
2021/03/14 10:29:34;;;;;;;13.53;2.70;;;10.30;99.90;;;;;;1925848;74;21066;-75
2021/03/14 10:32:03;;;;;;;13.35;3.15;;;10.30;99.90;;;;;;1921029;74;21163;-75
2021/03/14 10:34:31;;;;;;;16.40;2.90;;;10.40;99.90;;;;;;1925679;73;21198;-73
2021/03/14 10:36:58;;;;;;;15.63;2.80;;;10.40;99.90;;;;;;1922131;73;21113;-74
2021/03/14 10:39:28;;;;;;;10.32;2.75;;;10.50;99.90;;;;;;1923664;73;21128;-74
2021/03/14 10:41:56;;;;;;;11.68;3.55;;;10.70;99.90;;;;;;1924872;73;21906;-75
2021/03/14 10:44:26;;;;;;;13.55;3.12;;;10.80;99.90;;;;;;1925047;73;21035;-73
2021/03/14 10:46:55;;;;;;;10.78;2.02;;;10.90;99.90;;;;;;1923658;74;21081;-74
2021/03/14 10:49:28;;;;;;;16.73;2.67;;;11.10;99.90;;;;;;1923756;73;21044;-75
2021/03/14 10:51:58;;;;;;;11.90;2.40;;;11.10;99.90;;;;;;1919544;73;21103;-74
2021/03/14 10:54:36;;;;;;;13.53;2.60;;;11.10;99.90;;;;;;1929388;74;21071;-74
2021/03/14 10:57:14;;;;;;;12.70;2.72;;;10.90;99.90;;;;;;1923150;73;21182;-74
2021/03/14 10:59:42;;;;;;;12.30;2.67;;;10.90;99.90;;;;;;1922943;73;21108;-75
2021/03/14 11:02:22;;;;;;;12.82;2.85;;;10.90;99.90;;;;;;1920171;73;21035;-74
2021/03/14 11:04:53;;;;;;;8.98;3.22;;;10.80;99.90;;;;;;1923075;73;21526;-74
2021/03/14 11:07:28;;;;;;;11.22;2.62;;;10.80;99.90;;;;;;1915900;73;21129;-75
2021/03/14 11:10:15;;;;;;;10.23;1.90;;;10.80;99.90;;;;;;1922627;73;21073;-75
2021/03/14 11:12:47;;;;;;;12.00;2.45;;;10.90;99.90;;;;;;1925121;74;21093;-74
2021/03/14 11:15:31;;;;;;;7.78;2.02;;;11.00;99.90;;;;;;1924537;74;21604;-75
2021/03/14 11:18:05;;;;;;;11.45;2.37;;;11.10;99.90;;;;;;1920062;73;21164;-75
2021/03/14 11:20:31;;;;;;;7.80;2.25;;;11.20;99.90;;;;;;1916134;74;21089;-73
2021/03/14 11:23:00;;;;;;;8.78;2.27;;;11.20;99.90;;;;;;1914643;73;21827;-75
2021/03/14 11:25:29;;;;;;;8.65;1.98;;;11.40;99.90;;;;;;1919711;73;21097;-75
2021/03/14 11:27:58;;;;;;;11.12;2.27;;;11.50;99.90;;;;;;1874767;74;21180;-74
2021/03/14 11:30:31;;;;;;;9.75;1.90;;;11.70;99.90;;;;;;1921077;74;21119;-75
2021/03/14 11:32:56;;;;;;;9.03;1.80;;;11.70;99.90;;;;;;1916533;73;21097;-73
2021/03/14 11:35:30;;;;;;;5.40;1.70;;;11.60;99.90;;;;;;1916119;73;21494;-76
2021/03/14 11:37:59;;;;;;;9.45;1.70;;;11.60;99.90;;;;;;1914864;73;21117;-75
2021/03/14 11:40:27;;;;;;;10.05;2.12;;;11.60;99.90;;;;;;1915492;73;21451;-76
2021/03/14 11:43:19;;;;;;;;;;;;;;;;;;;;;
2021/03/14 11:45:57;;;;;;;;;;;;;;;;;;;;;
2021/03/14 11:48:16;;;;;;;5.62;1.40;;;11.70;99.90;;;;;;1905818;74;21076;-76
2021/03/14 11:50:44;;;;;;;6.35;1.47;;;11.50;99.90;;;;;;1919478;73;21472;-74
2021/03/14 11:53:12;;;;;;;7.28;1.30;;;11.70;99.90;;;;;;1921899;73;21158;-75
2021/03/14 11:55:39;;;;;;;7.45;1.40;;;12.20;99.90;;;;;;1918197;73;21602;-76
2021/03/14 11:58:07;;;;;;;7.62;1.67;;;12.40;99.90;;;;;;1917792;73;21187;-74
2021/03/14 12:00:34;;;;;;;6.40;1.40;;;12.40;99.90;;;;;;1912817;74;21026;-75
2021/03/14 12:03:02;;;;;;;7.70;1.92;;;12.40;99.90;;;;;;1918348;73;21105;-76
2021/03/14 12:05:29;;;;;;;7.17;1.60;;;12.30;99.90;;;;;;1917913;73;21166;-77
2021/03/14 12:07:57;;;;;;;6.90;1.60;;;12.40;99.90;;;;;;1917377;73;21066;-76
2021/03/14 12:10:24;;;;;;;7.35;1.47;;;12.50;99.90;;;;;;1918166;74;21029;-76
2021/03/14 12:12:52;;;;;;;6.78;1.70;;;12.70;99.90;;;;;;1918923;73;21077;-77
2021/03/14 12:15:20;;;;;;;10.95;1.90;;;12.80;99.90;;;;;;1918033;74;21270;-75
2021/03/14 12:17:47;;;;;;;8.28;1.65;;;13.10;99.90;;;;;;1917696;73;21955;-77
2021/03/14 12:20:15;;;;;;;6.12;1.52;;;13.10;99.90;;;;;;1922043;73;21497;-75
2021/03/14 12:22:42;;;;;;;8.23;1.70;;;13.00;99.90;;;;;;1914515;74;21203;-75
2021/03/14 12:25:10;;;;;;;6.25;1.67;;;13.20;99.90;;;;;;1916200;74;21093;-74
2021/03/14 12:27:38;;;;;;;10.15;1.62;;;13.60;99.90;;;;;;1918066;73;21524;-74
2021/03/14 12:30:06;;;;;;;10.72;1.67;;;13.80;99.90;;;;;;1911959;74;21143;-75
2021/03/14 12:32:34;;;;;;;9.53;1.98;;;13.70;99.90;;;;;;1916115;74;21060;-75
2021/03/14 12:35:01;;;;;;;9.43;2.05;;;13.50;99.90;;;;;;1912707;74;22185;-74
2021/03/14 12:37:29;;;;;;;4.65;1.45;;;13.30;99.90;;;;;;1915693;73;21105;-76
2021/03/14 12:39:56;;;;;;;6.47;2.20;;;12.90;99.90;;;;;;1917068;74;21088;-76
2021/03/14 12:42:24;;;;;;;6.40;1.87;;;12.50;99.90;;;;;;1915012;74;21149;-75
2021/03/14 12:44:51;;;;;;;5.83;1.25;;;12.20;99.90;;;;;;1913836;74;21214;-75
2021/03/14 12:47:19;;;;;;;3.87;1.47;;;12.00;99.90;;;;;;1914377;74;21178;-76
2021/03/14 12:50:21;;;;;;;3.25;1.20;;;11.80;99.90;;;;;;1913001;74;21097;-76
2021/03/14 12:52:45;;;;;;;3.92;1.20;;;11.70;99.90;;;;;;1879817;74;21116;-76
2021/03/14 12:55:11;;;;;;;6.92;1.37;;;11.50;99.90;;;;;;1899489;74;21061;-75
2021/03/14 12:57:40;;;;;;;3.15;0.80;;;11.10;99.90;;;;;;1916829;74;21184;-76
2021/03/14 13:00:10;;;;;;;3.77;1.30;;;11.20;99.90;;;;;;1916911;74;21070;-75
2021/03/14 13:02:38;;;;;;;4.22;1.40;;;11.60;99.90;;;;;;1915576;74;21170;-75
2021/03/14 13:05:07;;;;;;;3.77;1.40;;;11.90;99.90;;;;;;1913926;74;21054;-75
2021/03/14 13:07:35;;;;;;;2.37;0.70;;;11.80;99.90;;;;;;1913431;73;21108;-74
2021/03/14 13:10:05;;;;;;;2.83;0.98;;;11.50;99.90;;;;;;1910291;74;21183;-76
2021/03/14 13:12:32;;;;;;;3.05;0.90;;;11.10;99.90;;;;;;1913982;74;21203;-74